Latest Weather Observations for Beerburrum

IDQ60801

Issued at 10:32 am EST Wednesday 26 July 2017 (issued every 30 minutes, with the page automatically refreshed every 10 minutes)

About weather observations | Map of weather stations | Latest weather observations for QLD | Other Formats
Station Details ID: 040284 Name: BEERBURRUM FOREST STATION Lat: -26.96 Lon: 152.96 Height: 48.0 m
Data from the previous 72 hours. | See also: Recent months at Beerburrum
Date/Time
EST
Temp
°C
App
Temp
°C
Dew
Point
°C
Rel
Hum
%
Delta-T
°C
Wind Press
QNH
hPa
Press
MSL
hPa
Rain since
9am
mm
Dir  Spd
km/h
Gust
km/h
Spd
kts
Gust
kts
26/10:30am 20.6 18.3 2.9 31 8.3 SSW 4 7 2 4 - - 0.0
26/10:00am 19.6 17.3 2.9 33 7.8 SSW 4 7 2 4 - - 0.0
26/09:30am 19.3 17.9 3.5 35 7.5 CALM 0 0 0 0 - - 0.0
26/09:00am 17.2 15.9 4.2 42 6.1 CALM 0 6 0 3 - - 0.0
26/08:30am 15.7 14.5 4.7 48 5.2 CALM 0 0 0 0 - - 0.0
26/08:00am 12.7 11.8 6.1 64 3.1 CALM 0 0 0 0 - - 0.0
26/07:30am 9.0 7.8 4.8 75 1.9 CALM 0 0 0 0 - - 0.0
26/07:00am 7.8 6.4 3.3 73 1.9 CALM 0 0 0 0 - - 0.0
26/06:30am 8.1 5.9 3.6 73 1.9 SSE 4 6 2 3 - - 0.0
26/06:00am 8.5 6.0 3.6 71 2.1 S 6 7 3 4 - - 0.0
26/05:30am 8.6 6.0 3.2 69 2.3 SE 6 11 3 6 - - 0.0
26/05:00am 9.6 6.9 2.7 62 2.9 E 6 9 3 5 - - 0.0
26/04:30am 8.9 6.7 3.3 68 2.4 ESE 4 7 2 4 - - 0.0
26/04:00am 6.9 5.1 3.7 80 1.4 SE 2 7 1 4 - - 0.0
26/03:30am 6.2 4.4 3.5 83 1.1 SSE 2 6 1 3 - - 0.0
26/03:00am 7.0 5.3 4.1 82 1.2 ESE 2 7 1 4 - - 0.0
26/02:30am 5.9 4.7 4.4 90 0.6 CALM 0 0 0 0 - - 0.0
26/02:00am 6.4 5.2 4.6 88 0.8 CALM 0 0 0 0 - - 0.0
26/01:30am 6.4 5.2 4.7 89 0.7 CALM 0 0 0 0 - - 0.0
26/01:00am 5.9 4.7 4.4 90 0.6 CALM 0 0 0 0 - - 0.0
26/12:30am 6.0 4.8 4.5 90 0.6 CALM 0 0 0 0 - - 0.0
26/12:00am 6.1 4.9 4.6 90 0.6 CALM 0 0 0 0 - - 0.0
 
Date/Time
EST
Temp
°C
App
Temp
°C
Dew
Point
°C
Rel
Hum
%
Delta-T
°C
Wind Press
QNH
hPa
Press
MSL
hPa
Rain since
9am
mm
Dir  Spd
km/h
Gust
km/h
Spd
kts
Gust
kts
25/11:30pm 6.2 5.0 4.7 90 0.7 CALM 0 0 0 0 - - 0.0
25/11:00pm 6.6 5.5 4.9 89 0.7 CALM 0 0 0 0 - - 0.0
25/10:30pm 6.8 5.7 5.0 88 0.8 CALM 0 0 0 0 - - 0.0
25/10:00pm 7.1 6.0 5.1 87 0.9 CALM 0 0 0 0 - - 0.0
25/09:30pm 7.5 6.4 5.1 85 1.1 CALM 0 0 0 0 - - 0.0
25/09:00pm 8.0 6.9 5.3 83 1.2 CALM 0 0 0 0 - - 0.0
25/08:30pm 8.6 7.6 5.5 81 1.4 CALM 0 0 0 0 - - 0.0
25/08:00pm 9.4 8.5 5.9 79 1.6 CALM 0 0 0 0 - - 0.0
25/07:30pm 10.4 9.4 5.4 71 2.3 CALM 0 0 0 0 - - 0.0
25/07:00pm 12.4 11.4 5.6 63 3.2 CALM 0 0 0 0 - - 0.0
25/06:30pm 12.6 11.2 5.3 61 3.4 N 2 7 1 4 - - 0.0
25/06:00pm 13.9 12.9 5.8 58 3.8 CALM 0 0 0 0 - - 0.0
25/05:30pm 14.9 13.6 4.0 48 5.0 CALM 0 0 0 0 - - 0.0
25/05:00pm 16.8 15.4 3.8 42 6.1 CALM 0 0 0 0 - - 0.0
25/04:30pm 20.9 18.5 2.2 29 8.7 E 4 7 2 4 - - 0.0
25/04:00pm 22.0 20.4 2.2 27 9.3 CALM 0 6 0 3 - - 0.0
25/03:30pm 23.3 21.1 1.0 23 10.3 S 2 7 1 4 - - 0.0
25/03:00pm 23.8 21.0 -0.5 20 11.0 WSW 4 9 2 5 - - 0.0
25/02:30pm 23.4 19.8 -2.2 18 11.2 WNW 7 13 4 7 - - 0.0
25/02:00pm 23.6 20.1 -1.3 19 11.1 WNW 7 15 4 8 - - 0.0
25/01:30pm 23.8 20.4 -0.5 20 11.0 W 7 15 4 8 - - 0.0
25/01:00pm 23.6 20.2 -0.6 20 10.9 W 7 15 4 8 - - 0.0
25/12:30pm 23.4 19.5 -1.5 19 11.0 WSW 9 17 5 9 - - 0.0
25/12:00pm 22.7 19.1 -2.1 19 10.8 WSW 7 11 4 6 - - 0.0
25/11:30am 22.1 19.5 1.2 25 9.6 NNW 4 11 2 6 - - 0.0
25/11:00am 21.8 19.3 1.5 26 9.4 SW 4 7 2 4 - - 0.0
25/10:30am 21.0 18.2 1.8 28 8.9 W 6 9 3 5 - - 0.0
25/10:00am 20.0 17.5 3.7 34 7.8 SW 6 7 3 4 - - 0.0
25/09:30am 18.8 17.3 6.9 46 6.0 SSW 4 6 2 3 - - 0.0
25/09:00am 17.0 16.3 7.1 52 4.9 CALM 0 0 0 0 - - 0.2
25/08:30am 15.2 14.3 6.2 55 4.4 CALM 0 0 0 0 - - 0.2
25/08:00am 12.6 11.8 6.6 67 2.9 CALM 0 0 0 0 - - 0.2
25/07:30am 8.6 7.4 4.4 75 1.8 CALM 0 0 0 0 - - 0.2
25/07:00am 7.2 5.8 3.6 78 1.5 CALM 0 0 0 0 - - 0.2
25/06:30am 6.6 5.2 3.6 81 1.3 CALM 0 0 0 0 - - 0.2
25/06:00am 6.5 5.2 4.2 85 1.0 CALM 0 0 0 0 - - 0.2
25/05:30am 5.8 4.4 3.8 87 0.8 CALM 0 0 0 0 - - 0.2
25/05:00am 6.1 4.7 3.8 85 1.0 CALM 0 0 0 0 - - 0.2
25/04:30am 6.7 5.4 4.2 84 1.1 CALM 0 0 0 0 - - 0.2
25/04:00am 7.2 5.9 4.0 80 1.4 CALM 0 0 0 0 - - 0.2
25/03:30am 7.2 6.1 4.9 85 1.0 CALM 0 0 0 0 - - 0.2
25/03:00am 7.0 5.9 5.2 88 0.8 CALM 0 0 0 0 - - 0.2
25/02:30am 7.2 6.1 5.0 86 1.0 CALM 0 0 0 0 - - 0.2
25/02:00am 7.2 6.1 4.9 85 1.0 CALM 0 0 0 0 - - 0.2
25/01:30am 6.8 5.6 4.6 86 1.0 CALM 0 0 0 0 - - 0.2
25/01:00am 6.8 5.7 5.0 88 0.8 CALM 0 0 0 0 - - 0.2
25/12:30am 6.8 5.7 5.1 89 0.7 CALM 0 0 0 0 - - 0.2
25/12:00am 6.9 5.8 5.2 89 0.8 CALM 0 0 0 0 - - 0.2
 
Date/Time
EST
Temp
°C
App
Temp
°C
Dew
Point
°C
Rel
Hum
%
Delta-T
°C
Wind Press
QNH
hPa
Press
MSL
hPa
Rain since
9am
mm
Dir  Spd
km/h
Gust
km/h
Spd
kts
Gust
kts
24/11:30pm 7.1 6.1 5.4 89 0.8 CALM 0 0 0 0 - - 0.2
24/11:00pm 7.6 6.6 5.7 88 0.9 CALM 0 0 0 0 - - 0.2
24/10:30pm 7.9 6.9 5.7 86 1.0 CALM 0 0 0 0 - - 0.2
24/10:00pm 8.6 7.7 6.1 84 1.1 CALM 0 6 0 3 - - 0.2
24/09:30pm 9.2 8.3 6.1 81 1.4 CALM 0 0 0 0 - - 0.2
24/09:00pm 10.0 9.2 6.7 80 1.6 CALM 0 0 0 0 - - 0.2
24/08:30pm 10.5 9.9 7.2 80 1.6 CALM 0 7 0 4 - - 0.2
24/08:00pm 10.2 9.2 7.3 82 1.4 WNW 2 11 1 6 - - 0.2
24/07:30pm 10.8 10.1 7.1 78 1.8 CALM 0 0 0 0 - - 0.2
24/07:00pm 12.4 11.7 6.9 69 2.6 CALM 0 0 0 0 - - 0.2
24/06:30pm 13.8 11.9 6.9 63 3.4 N 6 7 3 4 - - 0.2
24/06:00pm 15.3 14.6 6.8 57 4.2 CALM 0 0 0 0 - - 0.2
24/05:30pm 16.1 15.3 6.3 52 4.8 CALM 0 0 0 0 - - 0.2
24/05:00pm 18.0 17.1 6.2 46 5.8 CALM 0 0 0 0 - - 0.2
24/04:30pm 22.0 20.5 5.0 33 8.4 SSE 2 6 1 3 - - 0.2
24/04:00pm 23.1 20.7 4.1 29 9.3 SSE 6 7 3 4 - - 0.2
24/03:30pm 24.4 22.1 2.5 24 10.5 SE 4 11 2 6 - - 0.2
24/03:00pm 24.8 22.3 3.5 25 10.5 SSE 6 7 3 4 - - 0.2
24/02:30pm 24.4 21.3 1.3 22 10.9 S 7 15 4 8 - - 0.2
24/02:00pm 24.9 22.3 1.1 21 11.2 SSW 4 11 2 6 - - 0.2
24/01:30pm 24.8 22.4 2.3 23 10.8 SSW 4 11 2 6 - - 0.2
24/01:00pm 24.1 21.3 2.3 24 10.4 WSW 6 7 3 4 - - 0.2
24/12:30pm 23.5 20.5 0.6 22 10.6 WNW 6 9 3 5 - - 0.2
24/12:00pm 23.0 20.1 1.4 24 10.1 W 6 9 3 5 - - 0.2
24/11:30am 22.1 19.0 0.0 23 10.0 W 6 11 3 6 - - 0.2
24/11:00am 21.4 19.1 0.6 25 9.4 WNW 2 6 1 3 - - 0.2
24/10:30am 20.1 17.7 2.0 30 8.3 SW 4 7 2 4 - - 0.0
24/10:00am 19.6 17.0 1.1 29 8.3 NNW 4 7 2 4 - - 0.0
24/09:30am 17.8 15.3 4.0 40 6.5 SSW 6 7 3 4 - - 0.0
24/09:00am 15.9 13.6 3.0 42 5.9 SE 4 6 2 3 - - 0.0
24/08:30am 14.0 13.1 5.9 58 3.9 CALM 0 0 0 0 - - 0.0
24/08:00am 11.7 10.9 6.4 70 2.5 CALM 0 0 0 0 - - 0.0
24/07:30am 8.4 7.0 3.5 71 2.1 CALM 0 0 0 0 - - 0.0
24/07:00am 7.6 6.0 2.5 70 2.1 CALM 0 0 0 0 - - 0.0
24/06:30am 8.0 6.4 2.7 69 2.2 CALM 0 0 0 0 - - 0.0
24/06:00am 7.9 6.3 2.6 69 2.2 CALM 0 6 0 3 - - 0.0
24/05:30am 7.3 5.8 3.2 75 1.7 CALM 0 0 0 0 - - 0.0
24/05:00am 7.3 6.0 4.1 80 1.4 CALM 0 6 0 3 - - 0.0
24/04:30am 7.6 5.4 3.6 76 1.7 WSW 4 9 2 5 - - 0.0
24/04:00am 8.2 6.9 4.0 75 1.8 CALM 0 6 0 3 - - 0.0
24/03:30am 8.5 7.0 5.1 79 1.5 WSW 2 7 1 4 - - 0.0
24/03:00am 9.2 8.0 4.6 73 2.0 CALM 0 6 0 3 - - 0.0
24/02:30am 9.3 7.8 5.1 75 1.9 S 2 6 1 3 - - 0.0
24/02:00am 8.1 6.2 5.0 81 1.4 SSW 4 6 2 3 - - 0.0
24/01:30am 8.2 7.1 5.1 81 1.4 CALM 0 0 0 0 - - 0.0
24/01:00am 8.9 8.0 6.0 82 1.3 CALM 0 0 0 0 - - 0.0
24/12:30am 8.2 7.3 6.2 87 0.9 CALM 0 0 0 0 - - 0.0
24/12:00am 8.2 7.4 6.7 90 0.7 CALM 0 0 0 0 - - 0.0
 
Date/Time
EST
Temp
°C
App
Temp
°C
Dew
Point
°C
Rel
Hum
%
Delta-T
°C
Wind Press
QNH
hPa
Press
MSL
hPa
Rain since
9am
mm
Dir  Spd
km/h
Gust
km/h
Spd
kts
Gust
kts
23/11:30pm 8.0 7.2 6.6 91 0.6 CALM 0 0 0 0 - - 0.0
23/11:00pm 8.2 7.4 6.7 90 0.7 CALM 0 0 0 0 - - 0.0
23/10:30pm 8.9 8.3 7.4 90 0.7 CALM 0 0 0 0 - - 0.0
23/10:00pm 9.6 9.1 7.9 89 0.8 CALM 0 0 0 0 - - 0.0
23/09:30pm 10.5 10.2 8.8 89 0.8 CALM 0 2 0 1 - - 0.0
23/09:00pm 10.9 9.5 9.0 88 0.9 SSW 6 7 3 4 - - 0.0
23/08:30pm 11.9 12.0 10.0 88 1.0 CALM 0 0 0 0 - - 0.0
23/08:00pm 13.4 13.6 10.6 83 1.5 CALM 0 0 0 0 - - 0.0
23/07:30pm 13.7 14.1 11.2 85 1.3 CALM 0 0 0 0 - - 0.0
23/07:00pm 13.8 14.0 10.4 80 1.8 CALM 0 6 0 3 - - 0.0
23/06:30pm 14.5 13.4 10.7 78 2.0 N 7 11 4 6 - - 0.0
23/06:00pm 15.3 14.7 10.5 73 2.5 N 4 7 2 4 - - 0.0
23/05:30pm 16.2 15.9 10.1 67 3.2 NNW 2 6 1 3 - - 0.0
23/05:00pm 18.4 17.9 9.5 56 4.7 NNE 2 7 1 4 - - 0.0
23/04:30pm 21.3 18.8 3.5 31 8.5 NNW 6 9 3 5 - - 0.0
23/04:00pm 22.0 19.5 3.6 30 8.9 WNW 6 9 3 5 - - 0.0
23/03:30pm 22.9 19.9 3.9 29 9.3 W 9 17 5 9 - - 0.0
23/03:00pm 23.3 21.1 5.2 31 9.1 W 6 13 3 7 - - 0.0
23/02:30pm 23.1 20.8 5.5 32 8.9 W 7 13 4 7 - - 0.0
23/02:00pm 22.8 20.4 5.3 32 8.8 WSW 7 13 4 7 - - 0.0
23/01:30pm 23.1 20.9 6.0 33 8.7 WSW 7 13 4 7 - - 0.0
23/01:00pm 22.9 21.0 7.4 37 8.1 W 7 17 4 9 - - 0.0
23/12:30pm 22.2 19.6 6.0 35 8.2 W 9 19 5 10 - - 0.0
23/12:00pm 21.8 18.5 4.8 33 8.4 W 11 20 6 11 - - 0.0
23/11:30am 21.7 18.9 5.2 34 8.2 WNW 9 15 5 8 - - 0.0
23/11:00am 20.3 18.4 7.7 44 6.5 W 7 13 4 7 - - 0.0

Other Formats:

Comma delimited format used in spreadsheet applications
http://www.bom.gov.au/fwo/IDQ60801/IDQ60801.95566.axf

JavaScript Object Notation format (JSON) in row-major order
http://www.bom.gov.au/fwo/IDQ60801/IDQ60801.95566.json